Time;durP1;ratioP1;P1;durP2;ratioP2;P2;SDS_P1;SDS_P2;PMS_P1;PMS_P2;Temp;Humidity;BMP_temperature;BMP_pressure;BME280_temperature;BME280_humidity;BME280_pressure;Samples;Min_cycle;Max_cycle;Signal;HPM_P1;HPM_P2
2023/07/10 00:02:09;;;;;;;17.83;8.95;;;;;;;21.10;100.00;99340.81;5011531;28;20566;-89
2023/07/10 00:04:54;;;;;;;16.85;9.93;;;;;;;21.08;100.00;99342.94;4995333;28;20121;-88
2023/07/10 00:07:37;;;;;;;13.88;9.45;;;;;;;21.12;100.00;99344.81;4998805;28;20057;-86
2023/07/10 00:10:22;;;;;;;13.10;9.05;;;;;;;21.13;100.00;99334.94;5014859;28;20129;-86
2023/07/10 00:13:10;;;;;;;12.07;9.57;;;;;;;20.51;100.00;99339.78;5014410;28;20049;-86
2023/07/10 00:15:54;;;;;;;15.00;10.50;;;;;;;20.90;100.00;99330.78;5014154;28;20157;-87
2023/07/10 00:18:38;;;;;;;16.38;11.13;;;;;;;20.82;100.00;99324.88;5014335;28;20072;-87
2023/07/10 00:21:22;;;;;;;12.18;9.52;;;;;;;20.83;100.00;99325.66;5014163;28;20092;-87
2023/07/10 00:24:07;;;;;;;24.67;11.30;;;;;;;20.86;100.00;99333.19;4999522;28;20084;-88
2023/07/10 00:26:52;;;;;;;21.30;12.18;;;;;;;20.79;100.00;99329.88;5012786;28;20049;-86
2023/07/10 00:29:36;;;;;;;14.65;11.20;;;;;;;20.64;100.00;99320.72;5012915;28;20569;-85
2023/07/10 00:32:20;;;;;;;16.45;11.38;;;;;;;20.68;100.00;99329.81;4998999;28;20084;-88
2023/07/10 00:35:05;;;;;;;19.98;12.15;;;;;;;20.64;100.00;99330.56;5015265;28;20041;-88
2023/07/10 00:38:02;;;;;;;15.95;10.50;;;;;;;20.74;100.00;99332.50;5001044;28;20091;-87
2023/07/10 00:40:47;;;;;;;17.23;10.57;;;;;;;20.75;100.00;99334.94;5000784;28;20103;-88
2023/07/10 00:43:38;;;;;;;15.90;10.80;;;;;;;20.83;100.00;99315.00;4999651;28;20396;-86
2023/07/10 00:46:45;;;;;;;18.98;10.93;;;;;;;20.74;100.00;99321.84;5013667;28;20088;-85
2023/07/10 00:49:43;;;;;;;18.13;10.35;;;;;;;21.22;100.00;99325.41;4998480;28;20044;-85
2023/07/10 00:52:31;;;;;;;14.23;9.75;;;;;;;21.19;100.00;99325.91;4998378;28;20526;-85
2023/07/10 00:55:37;;;;;;;17.05;10.15;;;;;;;21.14;100.00;99320.53;5013623;28;20468;-88
2023/07/10 00:58:30;;;;;;;14.82;9.88;;;;;;;21.10;100.00;99325.56;5020502;28;20102;-89
2023/07/10 01:01:19;;;;;;;12.98;9.73;;;;;;;20.86;100.00;99319.84;5021146;28;20550;-88
2023/07/10 01:04:03;;;;;;;15.73;9.82;;;;;;;20.93;100.00;99320.41;5003303;28;20487;-87
2023/07/10 01:06:48;;;;;;;14.35;9.05;;;;;;;20.87;100.00;99321.44;5014155;28;20117;-88
2023/07/10 01:09:33;;;;;;;13.75;9.80;;;;;;;21.01;100.00;99332.47;5016301;28;20041;-89
2023/07/10 01:12:18;;;;;;;14.02;9.32;;;;;;;20.86;100.00;99327.84;5001296;28;20080;-89
2023/07/10 01:15:04;;;;;;;16.88;9.20;;;;;;;20.62;100.00;99328.13;5000343;28;20499;-87
2023/07/10 01:17:48;;;;;;;16.88;10.45;;;;;;;20.46;100.00;99323.75;5022329;28;20092;-88
2023/07/10 01:20:47;;;;;;;15.15;9.65;;;;;;;20.47;100.00;99320.81;5006299;28;20454;-89
2023/07/10 01:23:31;;;;;;;14.57;9.68;;;;;;;20.56;100.00;99318.50;5008058;28;20548;-89
2023/07/10 01:26:15;;;;;;;16.42;10.88;;;;;;;20.48;100.00;99319.75;5008400;28;20188;-89
2023/07/10 01:29:00;;;;;;;17.45;9.70;;;;;;;20.54;100.00;99315.28;5009642;28;20048;-90
2023/07/10 01:31:46;;;;;;;19.90;9.80;;;;;;;20.51;100.00;99313.13;5004928;28;20096;-89
2023/07/10 01:34:41;;;;;;;15.82;8.70;;;;;;;20.39;100.00;99313.28;5006572;28;20049;-89
2023/07/10 01:37:25;;;;;;;17.13;8.95;;;;;;;20.32;100.00;99318.81;5007728;28;20546;-90
2023/07/10 01:40:14;;;;;;;20.27;8.50;;;;;;;20.32;100.00;99318.81;5008654;28;20080;-89
2023/07/10 01:43:01;;;;;;;16.60;8.15;;;;;;;19.62;100.00;99318.56;5005769;28;20072;-90
2023/07/10 01:45:48;;;;;;;18.52;8.48;;;;;;;19.45;100.00;99324.72;5008437;28;20096;-89
2023/07/10 01:48:32;;;;;;;15.68;7.82;;;;;;;19.38;100.00;99313.47;5005784;28;20077;-89
2023/07/10 01:51:19;;;;;;;17.25;8.02;;;;;;;19.16;100.00;99316.91;5000422;28;20053;-90
2023/07/10 01:54:04;;;;;;;14.32;7.40;;;;;;;19.27;100.00;99318.66;4999553;28;20048;-89
2023/07/10 01:56:48;;;;;;;13.68;7.55;;;;;;;19.27;100.00;99313.34;5001157;28;20080;-88
2023/07/10 01:59:37;;;;;;;13.93;7.15;;;;;;;19.25;100.00;99319.94;5015762;28;20123;-88
2023/07/10 02:02:21;;;;;;;14.13;7.70;;;;;;;19.13;100.00;99312.06;5016787;28;20065;-88
2023/07/10 02:05:05;;;;;;;12.98;7.38;;;;;;;19.29;100.00;99317.63;5014479;28;20459;-90
2023/07/10 02:07:49;;;;;;;16.63;7.43;;;;;;;19.15;100.00;99309.97;5013209;28;20069;-89
2023/07/10 02:10:33;;;;;;;12.80;6.75;;;;;;;19.23;100.00;99311.41;5014244;28;20048;-89
2023/07/10 02:13:17;;;;;;;11.55;6.80;;;;;;;19.07;100.00;99311.19;4998104;28;20111;-87
2023/07/10 02:16:04;;;;;;;17.85;6.95;;;;;;;19.04;100.00;99310.84;5014501;28;20102;-88
2023/07/10 02:18:48;;;;;;;10.18;5.60;;;;;;;18.95;100.00;99311.25;5014140;28;20076;-89
2023/07/10 02:21:32;;;;;;;11.02;5.03;;;;;;;18.95;100.00;99305.09;5013650;28;20104;-87
2023/07/10 02:24:17;;;;;;;11.75;5.30;;;;;;;19.02;100.00;99310.31;5013219;28;20067;-90
2023/07/10 02:27:01;;;;;;;9.43;4.20;;;;;;;19.00;100.00;99305.25;4997473;28;20049;-89
2023/07/10 02:29:45;;;;;;;7.30;4.35;;;;;;;19.07;100.00;99313.06;4996482;28;20408;-88
2023/07/10 02:32:29;;;;;;;9.07;4.85;;;;;;;19.11;100.00;99309.63;4998104;28;20119;-90
2023/07/10 02:35:13;;;;;;;9.15;4.95;;;;;;;19.01;100.00;99314.00;5012353;28;20044;-90
2023/07/10 02:37:57;;;;;;;7.80;4.53;;;;;;;18.96;100.00;99314.69;5012291;28;20064;-88
2023/07/10 02:40:43;;;;;;;10.93;5.22;;;;;;;18.96;100.00;99318.19;4997503;28;20048;-90
2023/07/10 02:43:27;;;;;;;16.02;5.32;;;;;;;19.03;100.00;99312.72;4997016;28;20052;-88
2023/07/10 02:46:11;;;;;;;8.95;4.70;;;;;;;18.98;100.00;99316.09;5012199;28;20055;-90
2023/07/10 02:48:55;;;;;;;12.95;4.70;;;;;;;19.00;100.00;99315.06;4996971;28;20104;-87
2023/07/10 02:51:39;;;;;;;9.75;4.60;;;;;;;19.05;100.00;99326.59;5011120;28;20167;-87
2023/07/10 02:54:23;;;;;;;14.10;5.38;;;;;;;19.01;100.00;99322.00;5011356;28;20452;-87
2023/07/10 02:57:07;;;;;;;15.50;5.20;;;;;;;19.00;100.00;99317.72;4996522;28;20053;-87
2023/07/10 02:59:51;;;;;;;21.17;5.22;;;;;;;18.98;100.00;99309.97;5011929;28;20038;-86
2023/07/10 03:02:35;;;;;;;11.95;5.55;;;;;;;18.95;100.00;99315.75;5011379;28;20121;-85
2023/07/10 03:05:19;;;;;;;14.40;5.50;;;;;;;18.96;100.00;99320.84;5011216;28;20045;-88
2023/07/10 03:08:03;;;;;;;12.45;5.10;;;;;;;18.95;100.00;99327.22;5011425;28;20428;-86
2023/07/10 03:10:47;;;;;;;12.13;4.82;;;;;;;19.04;100.00;99318.84;4998280;28;20095;-89
2023/07/10 03:13:34;;;;;;;13.60;4.78;;;;;;;18.87;100.00;99316.16;5013632;28;20141;-87
2023/07/10 03:16:18;;;;;;;13.45;4.70;;;;;;;19.11;100.00;99320.28;5012370;28;20096;-88
2023/07/10 03:19:02;;;;;;;13.40;5.10;;;;;;;18.93;100.00;99300.06;4997969;28;20037;-89
2023/07/10 03:21:46;;;;;;;13.38;5.50;;;;;;;19.06;100.00;99322.06;5012150;28;20056;-87
2023/07/10 03:24:31;;;;;;;15.48;5.18;;;;;;;18.96;100.00;99315.53;5010503;28;20124;-89
2023/07/10 03:27:15;;;;;;;10.32;4.95;;;;;;;18.95;100.00;99318.41;5012032;28;20041;-89
2023/07/10 03:30:02;;;;;;;10.65;4.45;;;;;;;19.16;100.00;99311.56;5011779;28;20037;-87
2023/07/10 03:32:46;;;;;;;14.82;5.30;;;;;;;19.02;100.00;99318.28;5010098;28;20048;-87
2023/07/10 03:35:30;;;;;;;15.98;4.93;;;;;;;19.21;100.00;99316.16;4995835;28;20435;-86
2023/07/10 03:38:15;;;;;;;10.77;4.47;;;;;;;18.79;100.00;99333.34;5014760;28;20083;-89
2023/07/10 03:41:00;;;;;;;16.83;5.38;;;;;;;18.93;100.00;99324.00;5000323;28;20133;-89
2023/07/10 03:43:43;;;;;;;11.10;4.50;;;;;;;19.12;100.00;99326.44;5002095;28;20140;-88
2023/07/10 03:46:27;;;;;;;15.50;4.78;;;;;;;18.94;100.00;99325.59;5014343;28;20049;-88
2023/07/10 03:49:12;;;;;;;16.65;4.88;;;;;;;19.04;100.00;99329.47;5015427;28;20505;-88
2023/07/10 03:51:56;;;;;;;8.73;4.60;;;;;;;18.98;100.00;99329.41;5016799;28;20088;-88
2023/07/10 03:54:40;;;;;;;11.88;5.13;;;;;;;18.90;100.00;99332.47;5017031;28;20036;-89
2023/07/10 03:57:23;;;;;;;14.68;4.90;;;;;;;18.94;100.00;99333.59;5001141;28;20072;-88
2023/07/10 04:00:08;;;;;;;15.68;5.40;;;;;;;18.74;100.00;99334.06;4999325;28;20139;-89
2023/07/10 04:02:52;;;;;;;15.77;4.57;;;;;;;18.97;100.00;99332.31;5015639;28;20392;-89
2023/07/10 04:05:36;;;;;;;8.90;4.57;;;;;;;18.84;100.00;99326.25;5016125;28;20041;-89
2023/07/10 04:08:20;;;;;;;10.93;5.28;;;;;;;18.78;100.00;99334.38;5016060;28;20096;-88
2023/07/10 04:11:10;;;;;;;13.90;4.63;;;;;;;18.70;100.00;99341.72;5013856;28;20045;-88
2023/07/10 04:13:55;;;;;;;12.20;4.63;;;;;;;18.77;100.00;99330.94;5018569;28;20053;-91
2023/07/10 04:16:39;;;;;;;10.25;4.32;;;;;;;18.71;100.00;99339.84;5019649;28;20044;-91
2023/07/10 04:19:22;;;;;;;12.55;4.85;;;;;;;19.05;100.00;99344.38;5019928;28;20036;-90
2023/07/10 04:22:07;;;;;;;13.57;4.65;;;;;;;18.91;100.00;99344.72;5019782;28;20140;-89
2023/07/10 04:24:51;;;;;;;12.43;3.90;;;;;;;19.00;100.00;99342.47;5016441;28;20060;-88
2023/07/10 04:27:35;;;;;;;14.43;4.63;;;;;;;19.03;100.00;99344.66;5014414;28;20091;-86
2023/07/10 04:30:19;;;;;;;;;;;;;;;19.18;100.00;99349.38;5018915;28;22041;-89
2023/07/10 04:33:03;;;;;;;8.27;4.25;;;;;;;19.14;100.00;99340.28;5001426;28;19956;-88
2023/07/10 04:35:55;;;;;;;17.30;4.85;;;;;;;19.31;100.00;99350.09;5017799;28;20072;-89
2023/07/10 04:38:39;;;;;;;9.45;3.88;;;;;;;19.16;100.00;99343.50;5015975;28;20562;-89
2023/07/10 04:41:24;;;;;;;13.73;4.32;;;;;;;19.01;100.00;99340.63;5016546;28;20495;-89
2023/07/10 04:44:08;;;;;;;12.57;4.30;;;;;;;19.18;100.00;99335.28;5015120;28;20045;-88
2023/07/10 04:46:52;;;;;;;12.30;4.32;;;;;;;19.18;100.00;99341.41;5017119;28;20399;-89
2023/07/10 04:49:36;;;;;;;10.88;4.70;;;;;;;19.20;100.00;99344.63;5001883;28;20037;-89
2023/07/10 04:52:20;;;;;;;11.00;4.75;;;;;;;19.35;100.00;99332.59;5011744;28;20125;-89
2023/07/10 04:55:04;;;;;;;12.88;4.70;;;;;;;19.24;100.00;99339.63;5016539;28;20483;-89
2023/07/10 04:57:48;;;;;;;10.98;4.85;;;;;;;19.28;100.00;99346.06;5016276;28;20044;-90
2023/07/10 05:00:33;;;;;;;12.23;4.45;;;;;;;19.27;100.00;99331.97;5017287;28;20048;-88
2023/07/10 05:03:18;;;;;;;12.90;4.50;;;;;;;19.18;100.00;99327.31;5016250;28;20033;-90
2023/07/10 05:06:02;;;;;;;12.55;4.85;;;;;;;19.08;100.00;99338.59;5016747;28;20404;-89
2023/07/10 05:08:46;;;;;;;10.23;4.03;;;;;;;19.42;100.00;99335.88;5001237;28;20041;-89
2023/07/10 05:11:31;;;;;;;11.30;4.55;;;;;;;19.53;100.00;99336.81;5014991;28;20104;-89
2023/07/10 05:14:15;;;;;;;9.82;4.53;;;;;;;19.51;100.00;99322.94;5014437;28;20041;-89
2023/07/10 05:16:59;;;;;;;9.30;4.60;;;;;;;19.54;100.00;99327.78;4999946;28;20053;-89
2023/07/10 05:19:44;;;;;;;12.25;4.05;;;;;;;19.57;100.00;99321.16;5002555;28;20041;-88
2023/07/10 05:22:28;;;;;;;7.05;3.53;;;;;;;19.73;100.00;99309.66;4999039;28;20045;-89
2023/07/10 05:25:12;;;;;;;11.80;3.90;;;;;;;19.86;100.00;99318.31;5002142;28;20049;-89
2023/07/10 05:27:56;;;;;;;13.13;4.28;;;;;;;20.09;100.00;99320.72;5000068;28;20091;-88
2023/07/10 05:30:40;;;;;;;11.38;3.92;;;;;;;19.99;100.00;99315.28;5005290;28;20104;-90
2023/07/10 05:33:24;;;;;;;8.30;3.95;;;;;;;20.20;100.00;99308.31;4998830;28;20117;-88
2023/07/10 05:36:11;;;;;;;12.40;3.95;;;;;;;20.45;100.00;99324.81;5000038;28;20559;-86
2023/07/10 05:38:55;;;;;;;8.13;3.50;;;;;;;20.68;100.00;99311.13;4997169;28;20045;-86
2023/07/10 05:41:39;;;;;;;13.90;3.75;;;;;;;20.74;100.00;99324.50;5012529;28;20541;-86
2023/07/10 05:44:23;;;;;;;8.02;3.92;;;;;;;20.74;100.00;99321.84;4997332;28;20048;-87
2023/07/10 05:47:07;;;;;;;9.90;3.55;;;;;;;20.87;99.89;99329.44;4996976;28;20121;-85
2023/07/10 05:49:51;;;;;;;8.73;3.33;;;;;;;21.02;99.38;99328.75;4997413;28;20511;-85
2023/07/10 05:52:35;;;;;;;8.27;3.60;;;;;;;21.16;98.57;99318.41;5012637;28;20122;-87
2023/07/10 05:55:19;;;;;;;12.43;3.40;;;;;;;21.19;97.59;99336.59;5012409;28;20041;-85
2023/07/10 05:58:03;;;;;;;12.55;4.07;;;;;;;21.35;96.91;99334.00;5012270;28;20080;-84
2023/07/10 06:00:49;;;;;;;7.13;2.95;;;;;;;21.54;96.95;99324.50;5012738;28;20048;-87
2023/07/10 06:03:36;;;;;;;10.63;3.38;;;;;;;21.35;95.03;99326.81;4997536;28;20386;-88
2023/07/10 06:06:20;;;;;;;7.43;3.08;;;;;;;21.59;94.37;99321.03;4998188;28;20557;-87
2023/07/10 06:09:04;;;;;;;9.57;3.55;;;;;;;21.57;94.46;99325.03;4996703;28;20045;-90
2023/07/10 06:11:48;;;;;;;10.93;3.50;;;;;;;21.61;95.61;99326.09;5010151;28;20515;-88
2023/07/10 06:14:32;;;;;;;11.70;3.33;;;;;;;21.70;95.09;99327.25;5012070;28;20036;-89
2023/07/10 06:17:16;;;;;;;7.53;2.78;;;;;;;21.75;95.57;99318.47;4997108;28;20514;-87
2023/07/10 06:20:01;;;;;;;11.30;3.42;;;;;;;21.65;94.45;99325.38;4999915;28;20044;-87
2023/07/10 06:22:45;;;;;;;16.42;3.33;;;;;;;21.65;95.15;99325.38;4998056;28;20064;-88
2023/07/10 06:25:30;;;;;;;16.63;3.80;;;;;;;21.96;94.38;99319.31;4998013;28;20117;-89
2023/07/10 06:28:14;;;;;;;10.13;3.15;;;;;;;22.16;95.25;99329.28;4998302;28;20743;-88
2023/07/10 06:31:05;;;;;;;12.52;3.60;;;;;;;22.09;94.80;99332.19;4998503;28;20095;-88
2023/07/10 06:33:50;;;;;;;14.52;4.40;;;;;;;22.06;93.55;99327.38;5013139;28;20044;-87
2023/07/10 06:36:34;;;;;;;11.73;3.70;;;;;;;22.03;93.11;99341.28;4998055;28;20133;-86
2023/07/10 06:39:18;;;;;;;10.05;4.30;;;;;;;21.98;95.47;99338.56;5010374;28;20052;-85
2023/07/10 06:42:03;;;;;;;9.93;3.83;;;;;;;22.24;95.26;99349.34;4996516;28;20135;-85
2023/07/10 06:44:47;;;;;;;10.35;4.35;;;;;;;22.42;95.14;99334.66;4997443;28;20052;-86
2023/07/10 06:47:31;;;;;;;8.75;3.70;;;;;;;22.66;96.20;99343.00;4994803;28;20048;-84
2023/07/10 06:50:16;;;;;;;12.15;3.75;;;;;;;22.52;94.97;99332.03;5010648;28;20044;-87
2023/07/10 06:53:00;;;;;;;13.43;4.00;;;;;;;22.02;94.35;99333.50;5009849;28;20041;-85
2023/07/10 06:55:45;;;;;;;15.52;4.80;;;;;;;21.96;94.66;99324.66;4996532;28;20412;-84
2023/07/10 06:58:30;;;;;;;10.60;4.43;;;;;;;22.18;95.62;99327.13;4994853;28;20080;-77
2023/07/10 07:01:14;;;;;;;10.00;4.25;;;;;;;22.32;95.48;99327.41;5009833;28;20172;-86
2023/07/10 07:03:58;;;;;;;11.77;4.93;;;;;;;22.61;95.10;99331.47;5012840;28;20096;-88
2023/07/10 07:06:43;;;;;;;13.57;4.10;;;;;;;22.66;94.81;99326.13;4994401;28;20053;-86
2023/07/10 07:09:26;;;;;;;8.55;4.10;;;;;;;22.65;95.74;99317.31;5012989;28;20081;-87
2023/07/10 07:12:11;;;;;;;11.70;4.30;;;;;;;22.44;95.41;99313.00;4996119;28;20081;-84
2023/07/10 07:14:55;;;;;;;10.10;4.20;;;;;;;22.78;95.53;99315.16;4996692;28;20507;-82
2023/07/10 07:17:39;;;;;;;8.70;3.78;;;;;;;22.77;96.73;99309.00;5016324;28;20125;-84
2023/07/10 07:20:26;;;;;;;11.25;4.20;;;;;;;22.56;97.76;99318.91;5021471;28;20087;-84
2023/07/10 07:23:10;;;;;;;13.32;4.53;;;;;;;22.59;96.48;99312.22;5006918;28;20107;-84
2023/07/10 07:25:56;;;;;;;13.00;4.07;;;;;;;22.62;96.80;99309.00;5002192;28;20566;-85
2023/07/10 07:28:40;;;;;;;8.30;4.32;;;;;;;22.62;97.28;99296.44;5016618;28;20053;-84
2023/07/10 07:31:24;;;;;;;7.90;3.65;;;;;;;22.90;96.56;99317.56;5015920;28;20053;-82
2023/07/10 07:34:08;;;;;;;7.78;3.60;;;;;;;22.83;94.57;99305.25;5000645;28;20391;-83
2023/07/10 07:36:53;;;;;;;10.27;3.42;;;;;;;22.65;94.62;99301.25;5017010;28;20522;-82
2023/07/10 07:39:37;;;;;;;12.93;4.32;;;;;;;22.68;94.79;99300.72;5014142;28;20404;-79
2023/07/10 07:42:21;;;;;;;15.00;4.10;;;;;;;23.08;96.27;99316.19;5013793;28;20387;-79
2023/07/10 07:45:05;;;;;;;7.60;3.72;;;;;;;23.19;96.25;99309.75;5014214;28;20174;-79
2023/07/10 07:47:49;;;;;;;14.48;3.50;;;;;;;23.34;95.71;99311.59;5014540;28;20106;-80
2023/07/10 07:50:33;;;;;;;8.48;3.72;;;;;;;23.51;93.97;99313.94;5014059;28;20550;-79
2023/07/10 07:53:17;;;;;;;11.15;4.00;;;;;;;23.56;93.24;99309.63;5014182;28;20503;-80
2023/07/10 07:56:01;;;;;;;9.80;3.47;;;;;;;23.70;93.28;99299.94;5014434;28;20514;-80
2023/07/10 07:58:46;;;;;;;14.63;3.55;;;;;;;23.82;91.56;99296.91;5013715;28;20053;-79
2023/07/10 08:01:30;;;;;;;14.75;3.50;;;;;;;24.28;91.71;99276.31;5016247;28;20053;-79
2023/07/10 08:04:14;;;;;;;9.20;3.05;;;;;;;24.75;90.57;99282.06;5016351;28;20538;-81
2023/07/10 08:06:58;;;;;;;8.23;3.40;;;;;;;24.80;87.44;99287.44;5015849;28;20045;-81
2023/07/10 08:09:42;;;;;;;10.30;3.15;;;;;;;25.00;86.01;99280.25;5002518;28;20550;-79
2023/07/10 08:12:26;;;;;;;12.55;3.22;;;;;;;24.89;87.43;99280.34;5017026;28;20040;-80
2023/07/10 08:15:10;;;;;;;6.30;3.03;;;;;;;25.10;85.99;99291.69;5003889;28;20041;-80
2023/07/10 08:17:54;;;;;;;13.10;3.45;;;;;;;25.24;85.26;99275.66;5014309;28;20044;-81
2023/07/10 08:20:39;;;;;;;15.75;3.20;;;;;;;25.33;83.18;99277.72;5001736;28;20052;-81
2023/07/10 08:23:23;;;;;;;15.07;3.78;;;;;;;25.72;81.91;99297.44;4968206;28;20098;-81
2023/07/10 08:26:08;;;;;;;8.88;3.00;;;;;;;25.83;82.52;99296.19;4968326;28;20070;-79
2023/07/10 08:28:52;;;;;;;12.63;2.92;;;;;;;26.17;81.62;99289.03;4958875;28;20061;-81
2023/07/10 08:31:37;;;;;;;12.50;3.35;;;;;;;26.31;82.22;99289.06;4972796;28;20412;-80
2023/07/10 08:34:24;;;;;;;9.82;2.88;;;;;;;26.41;81.17;99269.28;4973602;28;20050;-80
2023/07/10 08:37:08;;;;;;;11.60;3.00;;;;;;;26.58;81.48;99272.22;4972996;28;20038;-81
2023/07/10 08:39:52;;;;;;;9.88;2.83;;;;;;;26.79;79.79;99264.56;4972218;28;20041;-76
2023/07/10 08:42:36;;;;;;;7.38;2.75;;;;;;;27.07;78.92;99263.81;4973916;28;20070;-80
2023/07/10 08:45:37;;;;;;;11.77;2.83;;;;;;;27.53;77.45;99272.88;4973726;28;20141;-82
2023/07/10 08:48:31;;;;;;;7.65;2.97;;;;;;;27.67;76.29;99282.84;4973384;28;20185;-81
2023/07/10 08:51:21;;;;;;;9.35;2.80;;;;;;;27.58;75.11;99286.25;4972478;28;20088;-82
2023/07/10 08:54:11;;;;;;;6.78;3.08;;;;;;;27.97;74.97;99278.66;4972511;28;20109;-82
2023/07/10 08:57:13;;;;;;;8.07;3.25;;;;;;;27.95;72.26;99280.88;4972701;28;20452;-83
2023/07/10 09:00:04;;;;;;;10.90;3.10;;;;;;;27.46;71.73;99311.00;4970965;28;20146;-84
2023/07/10 09:03:12;;;;;;;3.72;2.50;;;;;;;27.71;73.25;99305.41;4972110;28;20081;-82
2023/07/10 09:05:57;;;;;;;10.10;3.13;;;;;;;27.49;72.21;99315.00;4957885;28;20053;-82
2023/07/10 09:08:46;;;;;;;9.88;3.10;;;;;;;27.66;72.37;99309.00;4972878;28;20070;-81
2023/07/10 09:11:31;;;;;;;10.20;3.05;;;;;;;27.41;72.01;99319.19;4972832;28;20054;-82
2023/07/10 09:14:28;;;;;;;8.05;3.22;;;;;;;27.69;70.52;99313.00;4973122;28;20409;-82
2023/07/10 09:17:34;;;;;;;11.48;4.00;;;;;;;27.33;68.77;99301.81;4972208;28;20174;-82
2023/07/10 09:20:20;;;;;;;10.40;3.30;;;;;;;28.12;69.20;99292.91;4972157;28;20069;-82
2023/07/10 09:23:24;;;;;;;5.35;2.70;;;;;;;28.08;69.62;99292.72;4977415;28;20460;-82
2023/07/10 09:26:14;;;;;;;7.97;3.20;;;;;;;28.30;66.93;99300.06;4992997;28;20080;-82
2023/07/10 09:29:05;;;;;;;8.05;3.13;;;;;;;27.94;67.53;99314.34;4991229;28;20523;-84
2023/07/10 09:31:53;;;;;;;6.95;2.83;;;;;;;27.96;67.69;99305.94;4978052;28;20057;-81
2023/07/10 09:34:43;;;;;;;6.43;2.72;;;;;;;27.82;66.64;99308.69;4992573;28;20096;-82
2023/07/10 09:37:34;;;;;;;6.10;3.00;;;;;;;27.51;65.89;99308.25;4991994;28;20101;-82
2023/07/10 09:40:32;;;;;;;6.50;2.90;;;;;;;27.09;68.01;99320.88;4992027;28;20089;-81
2023/07/10 09:43:17;;;;;;;6.45;3.10;;;;;;;26.69;67.65;99321.28;4977747;28;20066;-82
2023/07/10 09:46:02;;;;;;;11.10;3.17;;;;;;;25.99;67.96;99309.41;4977341;28;20040;-82
2023/07/10 09:48:47;;;;;;;7.60;3.10;;;;;;;26.01;69.72;99302.66;4992130;28;20495;-82
2023/07/10 09:51:32;;;;;;;12.73;3.30;;;;;;;26.05;70.41;99302.91;4990599;28;20121;-82
2023/07/10 09:54:15;;;;;;;4.97;3.03;;;;;;;26.19;70.79;99297.59;4991393;28;20089;-81
2023/07/10 09:57:03;;;;;;;9.25;3.08;;;;;;;26.19;70.75;99303.75;4990726;28;20053;-81
2023/07/10 09:59:52;;;;;;;6.90;3.28;;;;;;;26.21;69.77;99312.34;4991911;28;20389;-81
2023/07/10 10:02:45;;;;;;;8.25;3.65;;;;;;;26.30;71.05;99309.00;4992060;28;20044;-81
2023/07/10 10:05:30;;;;;;;12.48;3.95;;;;;;;26.77;69.21;99306.34;4977547;28;20044;-81
2023/07/10 10:08:25;;;;;;;7.43;3.35;;;;;;;26.67;70.61;99302.72;4977003;28;20177;-83
2023/07/10 10:11:13;;;;;;;8.48;2.90;;;;;;;26.76;69.90;99304.75;4991603;28;20093;-82
2023/07/10 10:14:02;;;;;;;12.07;3.75;;;;;;;26.58;71.28;99309.91;4991317;28;20077;-82
2023/07/10 10:16:53;;;;;;;14.00;3.50;;;;;;;26.26;71.16;99308.78;4991364;28;20121;-82
2023/07/10 10:19:43;;;;;;;11.52;3.10;;;;;;;25.98;71.57;99308.63;4991270;28;20088;-81
2023/07/10 10:22:29;;;;;;;7.30;2.80;;;;;;;26.00;72.62;99300.25;4975501;28;20506;-81
2023/07/10 10:25:16;;;;;;;10.10;3.45;;;;;;;26.46;69.61;99280.75;4976163;28;20112;-81
2023/07/10 10:28:27;;;;;;;6.43;3.10;;;;;;;26.58;68.94;99261.44;4976229;28;20049;-82
2023/07/10 10:31:14;;;;;;;7.95;3.13;;;;;;;26.80;70.17;99251.91;4991490;28;20033;-81
2023/07/10 10:34:07;;;;;;;10.95;3.50;;;;;;;27.61;69.39;99231.75;4990759;28;20058;-81
2023/07/10 10:37:22;;;;;;;6.00;2.88;;;;;;;28.57;66.99;99248.91;4976870;28;20156;-82
2023/07/10 10:40:26;;;;;;;7.43;3.28;;;;;;;28.80;63.53;99238.88;4990055;28;20089;-81
2023/07/10 10:43:22;;;;;;;8.18;3.03;;;;;;;29.70;65.60;99228.75;4976443;28;20124;-82
2023/07/10 10:46:28;;;;;;;10.75;4.07;;;;;;;29.91;64.51;99233.50;4991112;28;20165;-82
2023/07/10 10:49:46;;;;;;;9.35;3.55;;;;;;;30.02;63.52;99240.19;4976350;28;20093;-82
2023/07/10 10:52:39;;;;;;;10.13;2.80;;;;;;;30.12;62.20;99243.69;4989397;28;20045;-82
2023/07/10 10:55:48;;;;;;;7.75;3.25;;;;;;;30.18;62.21;99258.66;4990863;28;20142;-82
2023/07/10 10:58:57;;;;;;;10.90;3.75;;;;;;;29.73;61.29;99248.94;4990182;28;20096;-81
2023/07/10 11:02:10;;;;;;;9.52;3.33;;;;;;;30.34;61.10;99242.69;4990241;28;20069;-83
2023/07/10 11:05:01;;;;;;;8.63;3.10;;;;;;;30.17;62.04;99246.22;4990809;28;20403;-83
2023/07/10 11:07:53;;;;;;;7.68;3.42;;;;;;;29.74;61.22;99256.75;4990616;28;20554;-84
2023/07/10 11:10:41;;;;;;;8.98;3.03;;;;;;;29.32;61.45;99251.72;4989711;28;20053;-83
2023/07/10 11:13:36;;;;;;;5.72;3.33;;;;;;;28.92;61.59;99249.88;4975341;28;20121;-86
2023/07/10 11:16:20;;;;;;;8.13;3.42;;;;;;;28.43;62.33;99247.09;4987315;28;20041;-86
2023/07/10 11:19:05;;;;;;;8.25;3.03;;;;;;;28.34;62.57;99247.03;4976714;28;20076;-86
2023/07/10 11:21:52;;;;;;;9.80;3.50;;;;;;;28.08;63.91;99255.72;4989424;28;20530;-84
2023/07/10 11:24:36;;;;;;;6.18;3.72;;;;;;;27.98;64.11;99249.78;4989263;28;20054;-82
2023/07/10 11:27:36;;;;;;;12.52;3.53;;;;;;;28.78;63.94;99249.16;4976606;28;20211;-82
2023/07/10 11:30:33;;;;;;;11.43;3.90;;;;;;;28.89;63.61;99236.19;4976693;28;20161;-82
2023/07/10 11:33:20;;;;;;;9.70;3.90;;;;;;;29.46;62.25;99240.81;4989971;28;20096;-83
2023/07/10 11:36:35;;;;;;;8.38;3.65;;;;;;;29.21;60.32;99243.13;4975586;28;20096;-82
2023/07/10 11:39:30;;;;;;;9.98;3.28;;;;;;;28.03;60.95;99246.97;4988910;28;20045;-83
2023/07/10 11:42:17;;;;;;;7.90;3.60;;;;;;;27.66;63.46;99233.50;4988951;28;20150;-83
2023/07/10 11:45:07;;;;;;;9.98;3.72;;;;;;;26.75;64.41;99236.63;4975417;28;20054;-83
2023/07/10 11:47:56;;;;;;;10.65;4.35;;;;;;;26.15;67.10;99237.38;4989018;28;20524;-83
2023/07/10 11:50:42;;;;;;;10.07;3.42;;;;;;;26.43;66.87;99232.09;4988505;28;20049;-85
2023/07/10 11:53:44;;;;;;;6.68;4.07;;;;;;;26.37;67.40;99226.81;4989416;28;20495;-84
2023/07/10 11:56:32;;;;;;;10.43;4.00;;;;;;;26.15;69.37;99216.66;4971565;28;20146;-84
2023/07/10 11:59:25;;;;;;;10.68;4.10;;;;;;;26.19;71.69;99217.69;4973678;28;20049;-83
2023/07/10 12:02:38;;;;;;;7.90;3.80;;;;;;;26.35;72.60;99220.94;4977769;28;20511;-86
2023/07/10 12:05:26;;;;;;;16.73;3.88;;;;;;;26.25;74.52;99231.84;4995153;28;20307;-86
2023/07/10 12:08:15;;;;;;;10.10;3.38;;;;;;;25.77;76.49;99222.06;4979527;28;20052;-85
2023/07/10 12:10:59;;;;;;;11.20;4.00;;;;;;;26.08;76.29;99230.47;4980011;28;20048;-84
2023/07/10 12:13:43;;;;;;;11.30;3.78;;;;;;;26.09;77.44;99228.59;4995678;28;20120;-85
2023/07/10 12:16:26;;;;;;;;;;;;;;;25.97;75.88;99233.59;4995617;28;20903;-84
2023/07/10 12:19:19;;;;;;;9.02;3.80;;;;;;;26.18;76.21;99237.59;4995493;28;20279;-84
2023/07/10 12:22:25;;;;;;;10.27;3.63;;;;;;;25.88;76.89;99233.47;4994030;28;20134;-84
2023/07/10 12:25:14;;;;;;;9.23;4.32;;;;;;;25.73;77.37;99229.91;4995892;28;20052;-84
2023/07/10 12:28:13;;;;;;;7.78;3.78;;;;;;;26.50;77.79;99205.59;4998113;28;20049;-84
2023/07/10 12:30:58;;;;;;;11.27;4.20;;;;;;;26.88;78.31;99213.53;4996280;28;20096;-85
2023/07/10 12:33:46;;;;;;;10.88;3.83;;;;;;;27.61;77.09;99209.34;4981568;28;20142;-86
2023/07/10 12:36:38;;;;;;;8.00;3.40;;;;;;;28.49;76.27;99205.34;4996572;28;20041;-87
2023/07/10 12:39:23;;;;;;;7.32;3.60;;;;;;;28.80;73.00;99192.94;4996297;28;20053;-85
2023/07/10 12:42:30;;;;;;;7.43;3.50;;;;;;;28.86;73.68;99191.69;4995969;28;20104;-87
2023/07/10 12:45:19;;;;;;;9.82;4.30;;;;;;;28.91;73.12;99178.06;4995294;28;20050;-85
2023/07/10 12:48:09;;;;;;;6.45;3.47;;;;;;;28.93;75.08;99178.53;4981596;28;20104;-86
2023/07/10 12:50:57;;;;;;;6.93;3.55;;;;;;;28.80;73.56;99157.84;4981697;28;20056;-86
2023/07/10 12:53:41;;;;;;;10.30;3.75;;;;;;;27.87;74.34;99157.50;4994420;28;20061;-82
2023/07/10 12:56:46;;;;;;;8.88;3.85;;;;;;;28.19;74.70;99164.53;4993894;28;20085;-80
2023/07/10 12:59:34;;;;;;;7.75;3.63;;;;;;;28.48;75.28;99173.25;4992518;28;20105;-78